Aviation Weather View - Albury, NSW
Albury
METAR YMAY 221530Z 05003KT 9999 07/05 Q1025
ADVISORY INFORMATION ONLY.
Information and images sourced on a "best effort" basis from
our own station 2.7NM north of the field at 1016ft AMSL.
Weather information is NOT from the Albury Airport.

Contact Ross on 0409-578-660
Updated 1540Z (23-Sep-2018 at 01:40:03 local)
Temperature 9.1 Deg C
QNH is 1026
Humidity is 89% RH
Dewpoint is 7.4 Deg C
Estimated Cloudbase is 1700 feet amsl
Wind: 3 KT from 127 degrees magnetic (115 true)
Runway 07 Crosswind 2KT Right to Left
Runway 25 Crosswind 2KT Left to Right 1KT downwind
Wind last 10 minutes: Average 2 KT
Solar Insolation: 0 W/m^2

TWR: 123.25 SMC: 121.8 AWIS: 134.525 ATIS: 115.6/133.85
How to interpret the wind rose
Wind Rose
Solar Radiation Decoded METAR data
Albury Airport (94896, YMAY)
WMO Index: 95896
ID Name: YMAY
Date/Time: 22-Sep-2018 1530 UTC
Lat/Lon: 36.07S 146.95E
Wind: 050 deg true at 03.0 knots
Temperature: 6.8 deg C
Dewpoint: 5.0 deg C
QNH: 1025.6
Rain since 9am: 0.0
Rain last 10 mins: 0.0
Visibility: -9999 metres
AutoVisibility: 10000 metres
Max Wind Gust last 10 mins: 04.0 knots

Calculated humidity: 88.3 %RH